sensor_id;sensor_type;location;lat;lon;timestamp;pressure;altitude;pressure_sealevel;temperature;humidity
16431;BME280;8325;49.284;7.238;2023-05-07T04:01:38;98605.69;;;11.83;100.00
16431;BME280;8325;49.284;7.238;2023-05-07T04:05:51;98618.28;;;11.79;100.00
16431;BME280;8325;49.284;7.238;2023-05-07T04:10:03;98614.81;;;11.87;100.00
16431;BME280;8325;49.284;7.238;2023-05-07T04:14:15;98617.50;;;11.79;100.00
16431;BME280;8325;49.284;7.238;2023-05-07T04:18:27;98616.66;;;11.63;100.00
16431;BME280;8325;49.284;7.238;2023-05-07T04:22:38;98625.88;;;11.59;100.00
16431;BME280;8325;49.284;7.238;2023-05-07T04:26:50;98628.22;;;11.69;100.00
16431;BME280;8325;49.284;7.238;2023-05-07T04:31:05;98622.03;;;11.70;100.00
16431;BME280;8325;49.284;7.238;2023-05-07T04:35:18;98616.44;;;11.73;100.00
16431;BME280;8325;49.284;7.238;2023-05-07T04:39:30;98621.19;;;11.69;100.00
16431;BME280;8325;49.284;7.238;2023-05-07T04:43:43;98625.63;;;11.84;100.00
16431;BME280;8325;49.284;7.238;2023-05-07T04:47:57;98625.28;;;12.02;100.00
16431;BME280;8325;49.284;7.238;2023-05-07T04:52:09;98626.59;;;12.42;100.00
16431;BME280;8325;49.284;7.238;2023-05-07T04:56:20;98621.31;;;12.72;100.00
16431;BME280;8325;49.284;7.238;2023-05-07T05:00:32;98613.31;;;12.80;100.00
16431;BME280;8325;49.284;7.238;2023-05-07T05:04:47;98615.06;;;12.94;100.00
16431;BME280;8325;49.284;7.238;2023-05-07T05:08:59;98620.56;;;12.99;100.00
16431;BME280;8325;49.284;7.238;2023-05-07T05:13:13;98624.75;;;12.94;100.00
16431;BME280;8325;49.284;7.238;2023-05-07T05:17:26;98616.34;;;13.05;100.00
16431;BME280;8325;49.284;7.238;2023-05-07T05:21:38;98626.53;;;13.14;100.00
16431;BME280;8325;49.284;7.238;2023-05-07T05:25:58;98637.38;;;13.11;100.00
16431;BME280;8325;49.284;7.238;2023-05-07T05:30:13;98647.13;;;13.18;100.00
16431;BME280;8325;49.284;7.238;2023-05-07T05:34:28;98650.91;;;13.30;100.00
16431;BME280;8325;49.284;7.238;2023-05-07T05:38:41;98642.53;;;13.20;100.00
16431;BME280;8325;49.284;7.238;2023-05-07T05:42:55;98644.53;;;13.39;100.00
16431;BME280;8325;49.284;7.238;2023-05-07T05:47:08;98645.97;;;13.70;100.00
16431;BME280;8325;49.284;7.238;2023-05-07T05:51:20;98655.56;;;14.19;100.00
16431;BME280;8325;49.284;7.238;2023-05-07T05:55:33;98653.34;;;14.64;97.54
16431;BME280;8325;49.284;7.238;2023-05-07T05:59:46;98658.53;;;14.50;97.50
16431;BME280;8325;49.284;7.238;2023-05-07T06:03:58;98653.72;;;14.54;97.04
16431;BME280;8325;49.284;7.238;2023-05-07T06:08:10;98650.34;;;14.25;98.43
16431;BME280;8325;49.284;7.238;2023-05-07T06:12:22;98661.72;;;14.39;98.17
16431;BME280;8325;49.284;7.238;2023-05-07T06:16:33;98655.91;;;14.50;97.61
16431;BME280;8325;49.284;7.238;2023-05-07T06:20:45;98645.34;;;14.37;98.00
16431;BME280;8325;49.284;7.238;2023-05-07T06:25:06;98656.69;;;14.38;98.68
16431;BME280;8325;49.284;7.238;2023-05-07T06:29:18;98655.34;;;14.55;98.09
16431;BME280;8325;49.284;7.238;2023-05-07T06:33:30;98664.69;;;14.71;97.26
16431;BME280;8325;49.284;7.238;2023-05-07T06:37:42;98662.47;;;14.74;95.49
16431;BME280;8325;49.284;7.238;2023-05-07T06:42:04;98661.72;;;14.87;95.14
16431;BME280;8325;49.284;7.238;2023-05-07T06:46:17;98661.97;;;15.12;93.44
16431;BME280;8325;49.284;7.238;2023-05-07T06:50:29;98666.84;;;15.35;93.38
16431;BME280;8325;49.284;7.238;2023-05-07T06:54:43;98672.16;;;15.69;91.26
16431;BME280;8325;49.284;7.238;2023-05-07T06:58:57;98675.75;;;15.48;91.55
16431;BME280;8325;49.284;7.238;2023-05-07T07:03:09;98681.03;;;15.48;91.61
16431;BME280;8325;49.284;7.238;2023-05-07T07:07:21;98680.22;;;15.47;91.30
16431;BME280;8325;49.284;7.238;2023-05-07T07:11:34;98678.59;;;15.53;92.14
16431;BME280;8325;49.284;7.238;2023-05-07T07:15:46;98681.44;;;15.45;92.70
16431;BME280;8325;49.284;7.238;2023-05-07T07:19:59;98685.69;;;15.46;92.89
16431;BME280;8325;49.284;7.238;2023-05-07T07:24:10;98680.63;;;15.37;93.43
16431;BME280;8325;49.284;7.238;2023-05-07T07:28:22;98677.81;;;15.46;92.04
16431;BME280;8325;49.284;7.238;2023-05-07T07:32:34;98677.59;;;15.54;92.38
16431;BME280;8325;49.284;7.238;2023-05-07T07:36:46;98673.16;;;15.74;92.04
16431;BME280;8325;49.284;7.238;2023-05-07T07:41:01;98674.97;;;15.80;90.73
16431;BME280;8325;49.284;7.238;2023-05-07T07:45:14;98678.19;;;15.96;91.06
16431;BME280;8325;49.284;7.238;2023-05-07T07:49:30;98678.16;;;16.09;90.87
16431;BME280;8325;49.284;7.238;2023-05-07T07:53:46;98689.69;;;16.21;89.09
16431;BME280;8325;49.284;7.238;2023-05-07T07:57:58;98678.88;;;16.43;88.38
16431;BME280;8325;49.284;7.238;2023-05-07T08:02:10;98694.00;;;16.67;86.74
16431;BME280;8325;49.284;7.238;2023-05-07T08:06:22;98694.41;;;16.64;85.79
16431;BME280;8325;49.284;7.238;2023-05-07T08:10:33;98696.31;;;16.95;85.79
16431;BME280;8325;49.284;7.238;2023-05-07T08:14:52;98695.69;;;17.00;85.01
16431;BME280;8325;49.284;7.238;2023-05-07T08:19:03;98703.88;;;17.23;83.72
16431;BME280;8325;49.284;7.238;2023-05-07T08:23:16;98706.22;;;17.63;82.91
16431;BME280;8325;49.284;7.238;2023-05-07T08:27:29;98703.44;;;17.58;81.38
16431;BME280;8325;49.284;7.238;2023-05-07T08:31:41;98698.03;;;17.71;81.68
16431;BME280;8325;49.284;7.238;2023-05-07T08:35:52;98713.53;;;17.93;81.33
16431;BME280;8325;49.284;7.238;2023-05-07T08:40:05;98692.25;;;18.06;80.51
16431;BME280;8325;49.284;7.238;2023-05-07T08:44:22;98688.06;;;17.99;80.13
16431;BME280;8325;49.284;7.238;2023-05-07T08:48:35;98693.94;;;18.19;79.71
16431;BME280;8325;49.284;7.238;2023-05-07T08:52:51;98691.09;;;18.21;79.34
16431;BME280;8325;49.284;7.238;2023-05-07T08:57:04;98701.84;;;18.01;79.47
16431;BME280;8325;49.284;7.238;2023-05-07T09:01:18;98690.41;;;18.07;81.00
16431;BME280;8325;49.284;7.238;2023-05-07T09:05:34;98691.97;;;18.14;80.40
16431;BME280;8325;49.284;7.238;2023-05-07T09:09:48;98688.81;;;18.24;79.17
16431;BME280;8325;49.284;7.238;2023-05-07T09:14:00;98681.69;;;18.43;79.46
16431;BME280;8325;49.284;7.238;2023-05-07T09:18:20;98683.28;;;18.44;79.48
16431;BME280;8325;49.284;7.238;2023-05-07T09:22:35;98680.53;;;18.76;77.32
16431;BME280;8325;49.284;7.238;2023-05-07T09:26:50;98675.19;;;18.94;77.22
16431;BME280;8325;49.284;7.238;2023-05-07T09:31:02;98676.41;;;19.22;76.99
16431;BME280;8325;49.284;7.238;2023-05-07T09:35:15;98676.91;;;19.42;75.10
16431;BME280;8325;49.284;7.238;2023-05-07T09:39:42;98679.00;;;19.64;75.06
16431;BME280;8325;49.284;7.238;2023-05-07T09:43:56;98674.44;;;19.94;74.69
16431;BME280;8325;49.284;7.238;2023-05-07T09:48:23;98668.44;;;20.11;73.94
16431;BME280;8325;49.284;7.238;2023-05-07T09:52:40;98675.47;;;19.93;73.06
16431;BME280;8325;49.284;7.238;2023-05-07T09:56:53;98676.28;;;20.06;73.35
16431;BME280;8325;49.284;7.238;2023-05-07T10:01:11;98668.19;;;20.24;72.48
16431;BME280;8325;49.284;7.238;2023-05-07T10:05:25;98662.44;;;20.67;72.39
16431;BME280;8325;49.284;7.238;2023-05-07T10:09:40;98657.91;;;20.97;71.11
16431;BME280;8325;49.284;7.238;2023-05-07T10:14:04;98655.13;;;21.03;68.57
16431;BME280;8325;49.284;7.238;2023-05-07T10:18:19;98659.16;;;21.23;66.39
16431;BME280;8325;49.284;7.238;2023-05-07T10:22:42;98657.44;;;21.45;65.80
16431;BME280;8325;49.284;7.238;2023-05-07T10:26:56;98651.63;;;21.31;66.35
16431;BME280;8325;49.284;7.238;2023-05-07T10:35:57;98649.47;;;21.62;66.76
16431;BME280;8325;49.284;7.238;2023-05-07T10:40:11;98646.72;;;21.74;66.85
16431;BME280;8325;49.284;7.238;2023-05-07T10:44:28;98645.34;;;21.71;65.35
16431;BME280;8325;49.284;7.238;2023-05-07T10:53:20;98649.66;;;21.94;64.98
16431;BME280;8325;49.284;7.238;2023-05-07T10:57:43;98651.47;;;21.72;64.14
16431;BME280;8325;49.284;7.238;2023-05-07T11:02:04;98641.06;;;21.70;63.24
16431;BME280;8325;49.284;7.238;2023-05-07T11:06:27;98642.69;;;21.71;63.82
16431;BME280;8325;49.284;7.238;2023-05-07T11:10:55;98653.84;;;21.90;64.12
16431;BME280;8325;49.284;7.238;2023-05-07T11:15:35;98646.38;;;22.09;63.71
16431;BME280;8325;49.284;7.238;2023-05-07T11:19:53;98631.53;;;22.13;62.75
16431;BME280;8325;49.284;7.238;2023-05-07T11:24:17;98632.84;;;22.11;60.29
16431;BME280;8325;49.284;7.238;2023-05-07T11:28:41;98637.53;;;22.20;58.09
16431;BME280;8325;49.284;7.238;2023-05-07T11:32:54;98632.31;;;22.31;60.32
16431;BME280;8325;49.284;7.238;2023-05-07T11:37:06;98643.22;;;22.51;59.20
16431;BME280;8325;49.284;7.238;2023-05-07T11:41:38;98640.22;;;22.69;57.47
16431;BME280;8325;49.284;7.238;2023-05-07T11:45:50;98649.03;;;22.75;55.65
16431;BME280;8325;49.284;7.238;2023-05-07T11:50:06;98643.53;;;22.82;53.31
16431;BME280;8325;49.284;7.238;2023-05-07T11:54:19;98643.22;;;22.78;52.30
16431;BME280;8325;49.284;7.238;2023-05-07T11:58:31;98637.91;;;23.05;56.66
16431;BME280;8325;49.284;7.238;2023-05-07T12:02:43;98636.44;;;23.19;54.47
16431;BME280;8325;49.284;7.238;2023-05-07T12:06:55;98642.66;;;22.98;56.89
16431;BME280;8325;49.284;7.238;2023-05-07T12:11:08;98640.88;;;22.82;56.75
16431;BME280;8325;49.284;7.238;2023-05-07T12:15:24;98636.91;;;22.57;58.46
16431;BME280;8325;49.284;7.238;2023-05-07T12:19:36;98641.09;;;22.53;59.02
16431;BME280;8325;49.284;7.238;2023-05-07T12:23:48;98652.88;;;22.57;60.42
16431;BME280;8325;49.284;7.238;2023-05-07T12:28:01;98646.53;;;22.63;62.49
16431;BME280;8325;49.284;7.238;2023-05-07T12:32:16;98644.91;;;22.62;62.24
16431;BME280;8325;49.284;7.238;2023-05-07T12:36:36;98653.03;;;22.50;62.62
16431;BME280;8325;49.284;7.238;2023-05-07T12:40:50;98659.53;;;22.38;64.14
16431;BME280;8325;49.284;7.238;2023-05-07T12:45:13;98662.75;;;22.40;62.99
16431;BME280;8325;49.284;7.238;2023-05-07T12:49:27;98664.25;;;22.31;63.59
16431;BME280;8325;49.284;7.238;2023-05-07T12:53:40;98666.53;;;22.22;64.83
16431;BME280;8325;49.284;7.238;2023-05-07T12:57:53;98670.09;;;22.11;65.15
16431;BME280;8325;49.284;7.238;2023-05-07T13:02:05;98664.78;;;22.11;65.14
16431;BME280;8325;49.284;7.238;2023-05-07T13:06:19;98664.94;;;22.21;65.56
16431;BME280;8325;49.284;7.238;2023-05-07T13:10:31;98665.72;;;22.21;66.72
16431;BME280;8325;49.284;7.238;2023-05-07T13:14:42;98661.50;;;22.25;66.30
16431;BME280;8325;49.284;7.238;2023-05-07T13:18:54;98674.19;;;22.18;67.48
16431;BME280;8325;49.284;7.238;2023-05-07T13:23:05;98672.38;;;22.02;69.18
16431;BME280;8325;49.284;7.238;2023-05-07T13:27:17;98678.88;;;21.55;70.74
16431;BME280;8325;49.284;7.238;2023-05-07T13:31:30;98678.06;;;21.38;71.84
16431;BME280;8325;49.284;7.238;2023-05-07T13:35:43;98687.25;;;21.19;72.34
16431;BME280;8325;49.284;7.238;2023-05-07T13:39:54;98689.41;;;21.05;73.08
16431;BME280;8325;49.284;7.238;2023-05-07T13:44:06;98683.66;;;20.96;73.51
16431;BME280;8325;49.284;7.238;2023-05-07T13:48:18;98690.97;;;20.89;74.58
16431;BME280;8325;49.284;7.238;2023-05-07T13:52:29;98702.09;;;20.74;75.68
16431;BME280;8325;49.284;7.238;2023-05-07T13:56:41;98695.19;;;20.73;75.79
16431;BME280;8325;49.284;7.238;2023-05-07T14:00:53;98695.41;;;20.72;76.00
16431;BME280;8325;49.284;7.238;2023-05-07T14:05:04;98702.59;;;20.59;77.14
16431;BME280;8325;49.284;7.238;2023-05-07T14:09:16;98703.19;;;20.61;76.40
16431;BME280;8325;49.284;7.238;2023-05-07T14:13:28;98693.28;;;20.57;77.55
16431;BME280;8325;49.284;7.238;2023-05-07T14:17:43;98699.84;;;20.66;78.04
16431;BME280;8325;49.284;7.238;2023-05-07T14:21:54;98697.84;;;20.73;77.51
16431;BME280;8325;49.284;7.238;2023-05-07T14:26:09;98701.75;;;20.82;76.89
16431;BME280;8325;49.284;7.238;2023-05-07T14:30:21;98694.91;;;20.86;76.95
16431;BME280;8325;49.284;7.238;2023-05-07T14:34:35;98697.19;;;20.95;76.53
16431;BME280;8325;49.284;7.238;2023-05-07T14:38:47;98696.72;;;20.98;75.18
16431;BME280;8325;49.284;7.238;2023-05-07T14:42:58;98703.03;;;20.97;70.85
16431;BME280;8325;49.284;7.238;2023-05-07T14:47:10;98726.00;;;20.74;65.69
16431;BME280;8325;49.284;7.238;2023-05-07T14:51:21;98733.91;;;20.22;62.55
16431;BME280;8325;49.284;7.238;2023-05-07T14:55:34;98741.16;;;19.68;64.22
16431;BME280;8325;49.284;7.238;2023-05-07T14:59:46;98745.44;;;19.50;64.77
16431;BME280;8325;49.284;7.238;2023-05-07T15:03:58;98746.59;;;19.43;64.76
16431;BME280;8325;49.284;7.238;2023-05-07T15:08:11;98740.28;;;19.55;63.97
16431;BME280;8325;49.284;7.238;2023-05-07T15:12:23;98738.72;;;19.24;64.45
16431;BME280;8325;49.284;7.238;2023-05-07T15:16:34;98748.50;;;19.36;64.20
16431;BME280;8325;49.284;7.238;2023-05-07T15:20:46;98751.81;;;19.19;64.51
16431;BME280;8325;49.284;7.238;2023-05-07T15:24:58;98756.47;;;19.05;66.25
16431;BME280;8325;49.284;7.238;2023-05-07T15:29:10;98763.47;;;19.00;64.72
16431;BME280;8325;49.284;7.238;2023-05-07T15:33:21;98766.25;;;18.68;64.55
16431;BME280;8325;49.284;7.238;2023-05-07T15:37:33;98759.34;;;18.67;65.03
16431;BME280;8325;49.284;7.238;2023-05-07T15:41:45;98765.16;;;18.94;65.76
16431;BME280;8325;49.284;7.238;2023-05-07T15:45:56;98761.94;;;18.92;64.99
16431;BME280;8325;49.284;7.238;2023-05-07T15:50:08;98754.25;;;19.02;64.09
16431;BME280;8325;49.284;7.238;2023-05-07T15:54:20;98747.53;;;18.88;65.50
16431;BME280;8325;49.284;7.238;2023-05-07T15:58:32;98748.97;;;18.66;67.16
16431;BME280;8325;49.284;7.238;2023-05-07T16:02:44;98746.41;;;18.59;67.46
16431;BME280;8325;49.284;7.238;2023-05-07T16:06:55;98752.06;;;18.81;66.44
16431;BME280;8325;49.284;7.238;2023-05-07T16:11:07;98757.16;;;18.82;65.37
16431;BME280;8325;49.284;7.238;2023-05-07T16:15:18;98757.94;;;18.64;66.53
16431;BME280;8325;49.284;7.238;2023-05-07T16:19:30;98760.50;;;18.71;67.21
16431;BME280;8325;49.284;7.238;2023-05-07T16:23:42;98755.22;;;18.71;67.19
16431;BME280;8325;49.284;7.238;2023-05-07T16:27:54;98758.25;;;18.75;67.55
16431;BME280;8325;49.284;7.238;2023-05-07T16:32:06;98754.00;;;18.74;67.10
16431;BME280;8325;49.284;7.238;2023-05-07T16:36:17;98750.03;;;18.83;67.04
16431;BME280;8325;49.284;7.238;2023-05-07T16:40:29;98766.78;;;18.77;68.15
16431;BME280;8325;49.284;7.238;2023-05-07T16:44:41;98766.47;;;18.67;67.94
16431;BME280;8325;49.284;7.238;2023-05-07T16:48:52;98760.84;;;18.63;67.46
16431;BME280;8325;49.284;7.238;2023-05-07T16:53:04;98771.44;;;18.38;68.64
16431;BME280;8325;49.284;7.238;2023-05-07T16:57:17;98768.53;;;18.46;68.44
16431;BME280;8325;49.284;7.238;2023-05-07T17:01:28;98774.31;;;18.36;69.76
16431;BME280;8325;49.284;7.238;2023-05-07T17:05:43;98777.16;;;18.35;69.99
16431;BME280;8325;49.284;7.238;2023-05-07T17:09:54;98777.16;;;18.35;70.70
16431;BME280;8325;49.284;7.238;2023-05-07T17:14:06;98779.25;;;18.33;70.90
16431;BME280;8325;49.284;7.238;2023-05-07T17:18:17;98790.13;;;18.43;71.07
16431;BME280;8325;49.284;7.238;2023-05-07T17:22:29;98782.75;;;18.27;72.53
16431;BME280;8325;49.284;7.238;2023-05-07T17:26:40;98786.91;;;18.16;72.90
16431;BME280;8325;49.284;7.238;2023-05-07T17:30:53;98790.03;;;18.06;73.61
16431;BME280;8325;49.284;7.238;2023-05-07T17:35:05;98798.47;;;17.97;75.63
16431;BME280;8325;49.284;7.238;2023-05-07T17:39:17;98799.56;;;17.89;76.67
16431;BME280;8325;49.284;7.238;2023-05-07T17:43:28;98795.16;;;17.69;78.50
16431;BME280;8325;49.284;7.238;2023-05-07T17:47:40;98802.59;;;17.54;78.48
16431;BME280;8325;49.284;7.238;2023-05-07T17:51:52;98807.06;;;17.54;78.29
16431;BME280;8325;49.284;7.238;2023-05-07T17:56:06;98811.16;;;17.49;76.56
16431;BME280;8325;49.284;7.238;2023-05-07T18:00:17;98808.75;;;17.41;77.98
16431;BME280;8325;49.284;7.238;2023-05-07T18:04:29;98817.53;;;17.35;79.64
16431;BME280;8325;49.284;7.238;2023-05-07T18:08:40;98831.78;;;17.28;80.89
16431;BME280;8325;49.284;7.238;2023-05-07T18:12:52;98833.22;;;17.23;81.57
16431;BME280;8325;49.284;7.238;2023-05-07T18:17:03;98829.56;;;17.18;82.67
16431;BME280;8325;49.284;7.238;2023-05-07T18:21:15;98826.50;;;17.28;82.44
16431;BME280;8325;49.284;7.238;2023-05-07T18:25:29;98832.22;;;17.24;83.51
16431;BME280;8325;49.284;7.238;2023-05-07T18:29:41;98841.53;;;17.20;83.75
16431;BME280;8325;49.284;7.238;2023-05-07T18:33:52;98843.59;;;17.18;84.26
16431;BME280;8325;49.284;7.238;2023-05-07T18:38:06;98861.06;;;17.19;84.31
16431;BME280;8325;49.284;7.238;2023-05-07T18:42:17;98865.13;;;17.15;84.47
16431;BME280;8325;49.284;7.238;2023-05-07T18:46:29;98871.44;;;17.08;85.65
16431;BME280;8325;49.284;7.238;2023-05-07T18:50:43;98874.72;;;17.03;85.53
16431;BME280;8325;49.284;7.238;2023-05-07T18:54:55;98884.47;;;16.96;86.78
16431;BME280;8325;49.284;7.238;2023-05-07T18:59:07;98875.97;;;16.87;87.42
16431;BME280;8325;49.284;7.238;2023-05-07T19:03:18;98888.97;;;16.75;88.44
16431;BME280;8325;49.284;7.238;2023-05-07T19:07:30;98892.19;;;16.71;88.74
16431;BME280;8325;49.284;7.238;2023-05-07T19:11:41;98904.78;;;16.62;90.13
16431;BME280;8325;49.284;7.238;2023-05-07T19:15:53;98900.53;;;16.61;90.27
16431;BME280;8325;49.284;7.238;2023-05-07T19:20:06;98898.28;;;16.58;90.91
16431;BME280;8325;49.284;7.238;2023-05-07T19:24:18;98906.84;;;16.53;91.90
16431;BME280;8325;49.284;7.238;2023-05-07T19:28:29;98910.84;;;16.56;91.69
16431;BME280;8325;49.284;7.238;2023-05-07T19:32:42;98915.94;;;16.51;92.86
16431;BME280;8325;49.284;7.238;2023-05-07T19:36:53;98908.63;;;16.40;94.11
16431;BME280;8325;49.284;7.238;2023-05-07T19:41:05;98908.44;;;16.41;94.76
16431;BME280;8325;49.284;7.238;2023-05-07T19:45:17;98913.69;;;16.34;96.08
16431;BME280;8325;49.284;7.238;2023-05-07T19:49:29;98912.50;;;16.30;96.71
16431;BME280;8325;49.284;7.238;2023-05-07T19:53:40;98915.75;;;16.32;97.22
16431;BME280;8325;49.284;7.238;2023-05-07T19:57:52;98924.25;;;16.21;98.80
16431;BME280;8325;49.284;7.238;2023-05-07T20:02:03;98930.72;;;16.19;99.83
16431;BME280;8325;49.284;7.238;2023-05-07T20:06:15;98935.41;;;16.17;100.00
16431;BME280;8325;49.284;7.238;2023-05-07T20:10:27;98942.88;;;16.13;100.00
16431;BME280;8325;49.284;7.238;2023-05-07T20:14:39;98938.63;;;16.19;99.92
16431;BME280;8325;49.284;7.238;2023-05-07T20:18:50;98937.41;;;16.21;100.00
16431;BME280;8325;49.284;7.238;2023-05-07T20:23:02;98937.22;;;16.23;100.00
16431;BME280;8325;49.284;7.238;2023-05-07T20:27:13;98943.88;;;16.12;100.00
16431;BME280;8325;49.284;7.238;2023-05-07T20:31:26;98953.38;;;16.00;100.00
16431;BME280;8325;49.284;7.238;2023-05-07T20:35:37;98960.88;;;15.90;100.00
16431;BME280;8325;49.284;7.238;2023-05-07T20:39:49;98960.63;;;15.84;100.00
16431;BME280;8325;49.284;7.238;2023-05-07T20:44:01;98968.53;;;15.84;100.00
16431;BME280;8325;49.284;7.238;2023-05-07T20:48:13;98959.81;;;15.77;100.00
16431;BME280;8325;49.284;7.238;2023-05-07T20:52:25;98962.84;;;15.74;100.00
16431;BME280;8325;49.284;7.238;2023-05-07T20:56:39;98965.88;;;15.78;100.00
16431;BME280;8325;49.284;7.238;2023-05-07T21:00:54;98962.84;;;15.74;100.00
16431;BME280;8325;49.284;7.238;2023-05-07T21:05:09;98967.63;;;15.64;100.00
16431;BME280;8325;49.284;7.238;2023-05-07T21:09:35;98965.19;;;15.62;100.00
16431;BME280;8325;49.284;7.238;2023-05-07T21:13:52;98974.50;;;15.58;100.00
16431;BME280;8325;49.284;7.238;2023-05-07T21:18:08;98982.78;;;15.55;100.00
16431;BME280;8325;49.284;7.238;2023-05-07T21:22:29;98972.66;;;15.52;100.00
16431;BME280;8325;49.284;7.238;2023-05-07T21:26:46;98985.56;;;15.47;100.00
